sensor_id;sensor_type;location;lat;lon;timestamp;P1;durP1;ratioP1;P2;durP2;ratioP2
5961;SDS011;3007;50.770;0.250;2023-09-30T00:01:57;9.87;;;2.40;;
5961;SDS011;3007;50.770;0.250;2023-09-30T00:04:24;6.53;;;1.60;;
5961;SDS011;3007;50.770;0.250;2023-09-30T00:06:53;7.87;;;1.90;;
5961;SDS011;3007;50.770;0.250;2023-09-30T00:09:20;6.90;;;1.67;;
5961;SDS011;3007;50.770;0.250;2023-09-30T00:11:47;8.33;;;2.00;;
5961;SDS011;3007;50.770;0.250;2023-09-30T00:14:14;10.83;;;2.00;;
5961;SDS011;3007;50.770;0.250;2023-09-30T00:16:42;7.63;;;2.03;;
5961;SDS011;3007;50.770;0.250;2023-09-30T00:19:09;10.47;;;2.10;;
5961;SDS011;3007;50.770;0.250;2023-09-30T00:21:36;7.67;;;2.43;;
5961;SDS011;3007;50.770;0.250;2023-09-30T00:24:04;9.83;;;2.10;;
5961;SDS011;3007;50.770;0.250;2023-09-30T00:26:31;5.67;;;1.67;;
5961;SDS011;3007;50.770;0.250;2023-09-30T00:28:58;11.43;;;3.03;;
5961;SDS011;3007;50.770;0.250;2023-09-30T00:31:25;8.23;;;2.30;;
5961;SDS011;3007;50.770;0.250;2023-09-30T00:33:52;7.30;;;1.60;;
5961;SDS011;3007;50.770;0.250;2023-09-30T00:36:19;5.80;;;2.00;;
5961;SDS011;3007;50.770;0.250;2023-09-30T00:38:46;8.77;;;2.37;;
5961;SDS011;3007;50.770;0.250;2023-09-30T00:41:15;10.73;;;1.93;;
5961;SDS011;3007;50.770;0.250;2023-09-30T00:43:42;11.13;;;2.40;;
5961;SDS011;3007;50.770;0.250;2023-09-30T00:46:13;9.27;;;1.90;;
5961;SDS011;3007;50.770;0.250;2023-09-30T00:48:47;5.97;;;1.70;;
5961;SDS011;3007;50.770;0.250;2023-09-30T00:51:15;9.43;;;2.00;;
5961;SDS011;3007;50.770;0.250;2023-09-30T00:53:42;9.47;;;2.17;;
5961;SDS011;3007;50.770;0.250;2023-09-30T00:56:09;12.10;;;2.10;;
5961;SDS011;3007;50.770;0.250;2023-09-30T00:58:39;8.73;;;2.03;;
5961;SDS011;3007;50.770;0.250;2023-09-30T01:01:06;11.90;;;6.27;;
5961;SDS011;3007;50.770;0.250;2023-09-30T01:03:33;10.60;;;3.00;;
5961;SDS011;3007;50.770;0.250;2023-09-30T01:06:00;5.63;;;1.87;;
5961;SDS011;3007;50.770;0.250;2023-09-30T01:08:27;7.30;;;1.83;;
5961;SDS011;3007;50.770;0.250;2023-09-30T01:10:54;9.70;;;2.27;;
5961;SDS011;3007;50.770;0.250;2023-09-30T01:13:22;9.27;;;1.87;;
5961;SDS011;3007;50.770;0.250;2023-09-30T01:15:50;9.33;;;1.60;;
5961;SDS011;3007;50.770;0.250;2023-09-30T01:18:17;9.33;;;2.03;;
5961;SDS011;3007;50.770;0.250;2023-09-30T01:20:44;9.73;;;2.20;;
5961;SDS011;3007;50.770;0.250;2023-09-30T01:23:12;12.13;;;2.27;;
5961;SDS011;3007;50.770;0.250;2023-09-30T01:25:39;10.27;;;2.07;;
5961;SDS011;3007;50.770;0.250;2023-09-30T01:28:07;8.73;;;1.83;;
5961;SDS011;3007;50.770;0.250;2023-09-30T01:30:35;9.13;;;2.07;;
5961;SDS011;3007;50.770;0.250;2023-09-30T01:33:02;9.60;;;1.90;;
5961;SDS011;3007;50.770;0.250;2023-09-30T01:35:29;6.60;;;1.93;;
5961;SDS011;3007;50.770;0.250;2023-09-30T01:37:56;10.40;;;2.17;;
5961;SDS011;3007;50.770;0.250;2023-09-30T01:40:24;7.57;;;1.73;;
5961;SDS011;3007;50.770;0.250;2023-09-30T01:42:51;11.00;;;2.00;;
5961;SDS011;3007;50.770;0.250;2023-09-30T01:45:18;10.97;;;2.23;;
5961;SDS011;3007;50.770;0.250;2023-09-30T01:47:45;13.43;;;2.57;;
5961;SDS011;3007;50.770;0.250;2023-09-30T01:50:12;9.70;;;2.30;;
5961;SDS011;3007;50.770;0.250;2023-09-30T01:52:39;10.73;;;2.40;;
5961;SDS011;3007;50.770;0.250;2023-09-30T01:55:06;13.20;;;2.50;;
5961;SDS011;3007;50.770;0.250;2023-09-30T01:57:35;13.53;;;2.87;;
5961;SDS011;3007;50.770;0.250;2023-09-30T02:00:02;13.83;;;2.47;;
5961;SDS011;3007;50.770;0.250;2023-09-30T02:02:30;12.00;;;2.97;;
5961;SDS011;3007;50.770;0.250;2023-09-30T02:04:57;9.17;;;1.97;;
5961;SDS011;3007;50.770;0.250;2023-09-30T02:07:24;11.17;;;2.30;;
5961;SDS011;3007;50.770;0.250;2023-09-30T02:09:50;16.37;;;2.60;;
5961;SDS011;3007;50.770;0.250;2023-09-30T02:12:17;9.03;;;2.00;;
5961;SDS011;3007;50.770;0.250;2023-09-30T02:14:46;10.50;;;2.67;;
5961;SDS011;3007;50.770;0.250;2023-09-30T02:17:12;7.43;;;1.97;;
5961;SDS011;3007;50.770;0.250;2023-09-30T02:19:39;12.40;;;2.40;;
5961;SDS011;3007;50.770;0.250;2023-09-30T02:22:06;11.23;;;3.00;;
5961;SDS011;3007;50.770;0.250;2023-09-30T02:24:33;7.47;;;2.20;;
5961;SDS011;3007;50.770;0.250;2023-09-30T02:27:00;6.53;;;2.30;;
5961;SDS011;3007;50.770;0.250;2023-09-30T02:29:27;7.97;;;1.97;;
5961;SDS011;3007;50.770;0.250;2023-09-30T02:31:57;13.40;;;2.70;;
5961;SDS011;3007;50.770;0.250;2023-09-30T02:34:24;8.37;;;2.20;;
5961;SDS011;3007;50.770;0.250;2023-09-30T02:36:52;7.23;;;2.20;;
5961;SDS011;3007;50.770;0.250;2023-09-30T02:39:20;8.47;;;2.30;;
5961;SDS011;3007;50.770;0.250;2023-09-30T02:41:47;12.63;;;2.47;;
5961;SDS011;3007;50.770;0.250;2023-09-30T02:44:16;12.23;;;2.40;;
5961;SDS011;3007;50.770;0.250;2023-09-30T02:46:43;9.40;;;2.30;;
5961;SDS011;3007;50.770;0.250;2023-09-30T02:49:11;7.93;;;2.27;;
5961;SDS011;3007;50.770;0.250;2023-09-30T02:51:38;10.70;;;2.13;;
5961;SDS011;3007;50.770;0.250;2023-09-30T02:54:05;10.17;;;2.27;;
5961;SDS011;3007;50.770;0.250;2023-09-30T02:56:34;8.70;;;1.93;;
5961;SDS011;3007;50.770;0.250;2023-09-30T02:59:01;8.47;;;2.27;;
5961;SDS011;3007;50.770;0.250;2023-09-30T03:01:28;12.40;;;2.10;;
5961;SDS011;3007;50.770;0.250;2023-09-30T03:03:55;14.67;;;2.67;;
5961;SDS011;3007;50.770;0.250;2023-09-30T03:06:23;15.57;;;2.83;;
5961;SDS011;3007;50.770;0.250;2023-09-30T03:08:50;12.43;;;2.67;;
5961;SDS011;3007;50.770;0.250;2023-09-30T03:11:18;11.33;;;2.47;;
5961;SDS011;3007;50.770;0.250;2023-09-30T03:13:46;10.97;;;2.33;;
5961;SDS011;3007;50.770;0.250;2023-09-30T03:16:13;9.27;;;2.33;;
5961;SDS011;3007;50.770;0.250;2023-09-30T03:18:39;9.60;;;2.30;;
5961;SDS011;3007;50.770;0.250;2023-09-30T03:21:12;10.77;;;2.50;;
5961;SDS011;3007;50.770;0.250;2023-09-30T03:23:42;12.60;;;2.40;;
5961;SDS011;3007;50.770;0.250;2023-09-30T03:26:09;12.27;;;2.70;;
5961;SDS011;3007;50.770;0.250;2023-09-30T03:28:36;15.33;;;2.70;;
5961;SDS011;3007;50.770;0.250;2023-09-30T03:31:03;12.00;;;2.40;;
5961;SDS011;3007;50.770;0.250;2023-09-30T03:33:31;13.43;;;3.13;;
5961;SDS011;3007;50.770;0.250;2023-09-30T03:35:58;10.07;;;2.03;;
5961;SDS011;3007;50.770;0.250;2023-09-30T03:38:25;15.07;;;2.57;;
5961;SDS011;3007;50.770;0.250;2023-09-30T03:40:54;15.27;;;2.80;;
5961;SDS011;3007;50.770;0.250;2023-09-30T03:43:22;12.53;;;2.70;;
5961;SDS011;3007;50.770;0.250;2023-09-30T03:45:50;15.50;;;2.60;;
5961;SDS011;3007;50.770;0.250;2023-09-30T03:48:18;9.20;;;1.80;;
5961;SDS011;3007;50.770;0.250;2023-09-30T03:50:45;9.60;;;2.40;;
5961;SDS011;3007;50.770;0.250;2023-09-30T03:53:13;5.87;;;2.13;;
5961;SDS011;3007;50.770;0.250;2023-09-30T03:55:40;8.97;;;2.73;;
5961;SDS011;3007;50.770;0.250;2023-09-30T03:58:08;7.23;;;2.00;;
5961;SDS011;3007;50.770;0.250;2023-09-30T04:00:35;7.87;;;2.23;;
5961;SDS011;3007;50.770;0.250;2023-09-30T04:03:02;7.90;;;2.03;;
5961;SDS011;3007;50.770;0.250;2023-09-30T04:05:29;12.77;;;1.87;;
5961;SDS011;3007;50.770;0.250;2023-09-30T04:08:01;11.13;;;2.13;;
5961;SDS011;3007;50.770;0.250;2023-09-30T04:10:30;6.80;;;1.73;;
5961;SDS011;3007;50.770;0.250;2023-09-30T04:12:57;11.97;;;2.13;;
5961;SDS011;3007;50.770;0.250;2023-09-30T04:15:26;7.30;;;1.87;;
5961;SDS011;3007;50.770;0.250;2023-09-30T04:17:52;12.60;;;2.07;;
5961;SDS011;3007;50.770;0.250;2023-09-30T04:20:19;5.37;;;1.70;;
5961;SDS011;3007;50.770;0.250;2023-09-30T04:22:48;8.03;;;2.20;;
5961;SDS011;3007;50.770;0.250;2023-09-30T04:25:16;12.67;;;2.40;;
5961;SDS011;3007;50.770;0.250;2023-09-30T04:27:43;7.27;;;1.83;;
5961;SDS011;3007;50.770;0.250;2023-09-30T04:30:13;8.50;;;2.00;;
5961;SDS011;3007;50.770;0.250;2023-09-30T04:32:41;5.60;;;1.50;;
5961;SDS011;3007;50.770;0.250;2023-09-30T04:35:09;8.77;;;1.80;;
5961;SDS011;3007;50.770;0.250;2023-09-30T04:37:36;9.77;;;2.13;;
5961;SDS011;3007;50.770;0.250;2023-09-30T04:40:04;11.10;;;2.30;;
5961;SDS011;3007;50.770;0.250;2023-09-30T04:42:40;9.03;;;2.00;;
5961;SDS011;3007;50.770;0.250;2023-09-30T04:45:08;6.90;;;2.23;;
5961;SDS011;3007;50.770;0.250;2023-09-30T04:47:36;10.13;;;2.47;;
5961;SDS011;3007;50.770;0.250;2023-09-30T04:50:05;9.83;;;2.60;;
5961;SDS011;3007;50.770;0.250;2023-09-30T04:52:33;11.77;;;2.37;;
5961;SDS011;3007;50.770;0.250;2023-09-30T04:55:00;9.83;;;1.97;;
5961;SDS011;3007;50.770;0.250;2023-09-30T04:57:27;10.17;;;2.40;;
5961;SDS011;3007;50.770;0.250;2023-09-30T04:59:55;8.43;;;1.93;;
5961;SDS011;3007;50.770;0.250;2023-09-30T05:02:22;10.97;;;2.47;;
5961;SDS011;3007;50.770;0.250;2023-09-30T05:04:50;11.70;;;2.30;;
5961;SDS011;3007;50.770;0.250;2023-09-30T05:07:18;9.53;;;2.13;;
5961;SDS011;3007;50.770;0.250;2023-09-30T05:09:46;3.67;;;1.57;;
5961;SDS011;3007;50.770;0.250;2023-09-30T05:12:13;8.03;;;2.20;;
5961;SDS011;3007;50.770;0.250;2023-09-30T05:14:41;8.97;;;2.40;;
5961;SDS011;3007;50.770;0.250;2023-09-30T05:17:08;8.17;;;2.03;;
5961;SDS011;3007;50.770;0.250;2023-09-30T05:19:38;7.97;;;1.60;;
5961;SDS011;3007;50.770;0.250;2023-09-30T05:22:05;6.33;;;1.53;;
5961;SDS011;3007;50.770;0.250;2023-09-30T05:24:33;10.90;;;2.50;;
5961;SDS011;3007;50.770;0.250;2023-09-30T05:27:00;6.60;;;1.30;;
5961;SDS011;3007;50.770;0.250;2023-09-30T05:29:28;8.93;;;1.83;;
5961;SDS011;3007;50.770;0.250;2023-09-30T05:31:58;8.23;;;1.80;;
5961;SDS011;3007;50.770;0.250;2023-09-30T05:34:25;7.40;;;2.00;;
5961;SDS011;3007;50.770;0.250;2023-09-30T05:36:53;6.63;;;2.13;;
5961;SDS011;3007;50.770;0.250;2023-09-30T05:39:19;9.23;;;1.70;;
5961;SDS011;3007;50.770;0.250;2023-09-30T05:41:48;5.63;;;2.00;;
5961;SDS011;3007;50.770;0.250;2023-09-30T05:44:15;7.73;;;1.80;;
5961;SDS011;3007;50.770;0.250;2023-09-30T05:46:42;7.50;;;1.97;;
5961;SDS011;3007;50.770;0.250;2023-09-30T05:49:10;7.73;;;2.03;;
5961;SDS011;3007;50.770;0.250;2023-09-30T05:51:38;9.30;;;2.07;;
5961;SDS011;3007;50.770;0.250;2023-09-30T05:54:06;9.27;;;2.13;;
5961;SDS011;3007;50.770;0.250;2023-09-30T05:56:35;8.20;;;2.20;;
5961;SDS011;3007;50.770;0.250;2023-09-30T05:59:04;10.03;;;1.87;;
5961;SDS011;3007;50.770;0.250;2023-09-30T06:01:31;9.00;;;2.20;;
5961;SDS011;3007;50.770;0.250;2023-09-30T06:03:59;8.60;;;1.73;;
5961;SDS011;3007;50.770;0.250;2023-09-30T06:06:26;5.47;;;1.80;;
5961;SDS011;3007;50.770;0.250;2023-09-30T06:08:53;11.10;;;2.20;;
5961;SDS011;3007;50.770;0.250;2023-09-30T06:11:21;8.33;;;2.00;;
5961;SDS011;3007;50.770;0.250;2023-09-30T06:13:49;9.13;;;2.00;;
5961;SDS011;3007;50.770;0.250;2023-09-30T06:16:19;7.80;;;2.00;;
5961;SDS011;3007;50.770;0.250;2023-09-30T06:18:46;7.97;;;2.23;;
5961;SDS011;3007;50.770;0.250;2023-09-30T06:21:14;7.83;;;1.70;;
5961;SDS011;3007;50.770;0.250;2023-09-30T06:23:43;6.73;;;1.70;;
5961;SDS011;3007;50.770;0.250;2023-09-30T06:26:10;8.47;;;1.90;;
5961;SDS011;3007;50.770;0.250;2023-09-30T06:28:36;10.70;;;2.30;;
5961;SDS011;3007;50.770;0.250;2023-09-30T06:31:06;8.43;;;2.07;;
5961;SDS011;3007;50.770;0.250;2023-09-30T06:33:35;8.80;;;2.07;;
5961;SDS011;3007;50.770;0.250;2023-09-30T06:36:07;9.57;;;2.83;;
5961;SDS011;3007;50.770;0.250;2023-09-30T06:38:34;11.27;;;2.23;;
5961;SDS011;3007;50.770;0.250;2023-09-30T06:41:02;13.63;;;2.17;;
5961;SDS011;3007;50.770;0.250;2023-09-30T06:43:30;9.53;;;2.17;;
5961;SDS011;3007;50.770;0.250;2023-09-30T06:45:57;7.67;;;2.63;;
5961;SDS011;3007;50.770;0.250;2023-09-30T06:48:24;6.00;;;2.13;;
5961;SDS011;3007;50.770;0.250;2023-09-30T06:50:52;9.70;;;2.33;;
5961;SDS011;3007;50.770;0.250;2023-09-30T06:53:19;6.60;;;1.90;;
5961;SDS011;3007;50.770;0.250;2023-09-30T06:55:48;11.80;;;2.50;;
5961;SDS011;3007;50.770;0.250;2023-09-30T06:58:16;12.60;;;2.37;;
5961;SDS011;3007;50.770;0.250;2023-09-30T07:00:46;9.43;;;1.83;;
5961;SDS011;3007;50.770;0.250;2023-09-30T07:03:15;7.83;;;2.10;;
5961;SDS011;3007;50.770;0.250;2023-09-30T07:05:41;10.10;;;2.70;;
5961;SDS011;3007;50.770;0.250;2023-09-30T07:08:10;7.83;;;2.33;;
5961;SDS011;3007;50.770;0.250;2023-09-30T07:10:37;8.13;;;2.07;;
5961;SDS011;3007;50.770;0.250;2023-09-30T07:13:04;9.37;;;3.10;;
5961;SDS011;3007;50.770;0.250;2023-09-30T07:15:32;8.57;;;2.47;;
5961;SDS011;3007;50.770;0.250;2023-09-30T07:17:59;8.10;;;2.47;;
5961;SDS011;3007;50.770;0.250;2023-09-30T07:20:26;12.03;;;2.47;;
5961;SDS011;3007;50.770;0.250;2023-09-30T07:22:54;6.47;;;1.83;;
5961;SDS011;3007;50.770;0.250;2023-09-30T07:25:22;6.47;;;2.03;;
5961;SDS011;3007;50.770;0.250;2023-09-30T07:27:49;6.87;;;1.90;;
5961;SDS011;3007;50.770;0.250;2023-09-30T07:30:17;10.73;;;2.10;;
5961;SDS011;3007;50.770;0.250;2023-09-30T07:32:44;8.00;;;2.37;;
5961;SDS011;3007;50.770;0.250;2023-09-30T07:35:12;8.00;;;2.40;;
5961;SDS011;3007;50.770;0.250;2023-09-30T07:37:40;9.20;;;2.50;;
5961;SDS011;3007;50.770;0.250;2023-09-30T07:40:08;10.27;;;2.70;;
5961;SDS011;3007;50.770;0.250;2023-09-30T07:42:37;3.07;;;1.93;;
5961;SDS011;3007;50.770;0.250;2023-09-30T07:45:04;8.37;;;2.00;;
5961;SDS011;3007;50.770;0.250;2023-09-30T07:47:32;11.53;;;2.47;;
5961;SDS011;3007;50.770;0.250;2023-09-30T07:49:59;7.63;;;2.17;;
5961;SDS011;3007;50.770;0.250;2023-09-30T07:52:27;5.83;;;1.83;;
5961;SDS011;3007;50.770;0.250;2023-09-30T07:54:54;7.37;;;2.30;;
5961;SDS011;3007;50.770;0.250;2023-09-30T07:57:21;10.40;;;2.30;;
5961;SDS011;3007;50.770;0.250;2023-09-30T07:59:49;10.17;;;2.37;;
5961;SDS011;3007;50.770;0.250;2023-09-30T08:02:16;6.73;;;2.37;;
5961;SDS011;3007;50.770;0.250;2023-09-30T08:04:43;9.07;;;2.23;;
5961;SDS011;3007;50.770;0.250;2023-09-30T08:07:10;10.87;;;2.73;;
5961;SDS011;3007;50.770;0.250;2023-09-30T08:09:37;8.47;;;2.13;;
5961;SDS011;3007;50.770;0.250;2023-09-30T08:12:04;7.30;;;1.93;;
5961;SDS011;3007;50.770;0.250;2023-09-30T08:14:31;9.57;;;2.55;;
5961;SDS011;3007;50.770;0.250;2023-09-30T08:16:59;7.20;;;2.15;;
5961;SDS011;3007;50.770;0.250;2023-09-30T08:19:27;12.68;;;3.13;;
5961;SDS011;3007;50.770;0.250;2023-09-30T08:21:54;9.20;;;2.60;;
5961;SDS011;3007;50.770;0.250;2023-09-30T08:24:21;9.13;;;2.30;;
5961;SDS011;3007;50.770;0.250;2023-09-30T08:26:48;6.03;;;2.42;;
5961;SDS011;3007;50.770;0.250;2023-09-30T08:29:16;7.63;;;2.03;;
5961;SDS011;3007;50.770;0.250;2023-09-30T08:31:43;11.77;;;2.25;;
5961;SDS011;3007;50.770;0.250;2023-09-30T08:34:11;11.75;;;2.28;;
5961;SDS011;3007;50.770;0.250;2023-09-30T08:36:39;6.50;;;2.40;;
5961;SDS011;3007;50.770;0.250;2023-09-30T08:39:06;9.23;;;2.70;;
5961;SDS011;3007;50.770;0.250;2023-09-30T08:41:35;9.20;;;2.80;;
5961;SDS011;3007;50.770;0.250;2023-09-30T08:44:03;10.40;;;2.90;;
5961;SDS011;3007;50.770;0.250;2023-09-30T08:46:31;10.57;;;3.03;;
5961;SDS011;3007;50.770;0.250;2023-09-30T08:48:59;8.70;;;2.92;;
5961;SDS011;3007;50.770;0.250;2023-09-30T08:51:29;10.85;;;2.78;;
5961;SDS011;3007;50.770;0.250;2023-09-30T08:53:58;7.80;;;2.33;;
5961;SDS011;3007;50.770;0.250;2023-09-30T08:56:26;12.95;;;2.70;;
5961;SDS011;3007;50.770;0.250;2023-09-30T08:58:54;11.38;;;3.22;;
5961;SDS011;3007;50.770;0.250;2023-09-30T09:01:24;13.70;;;3.97;;
5961;SDS011;3007;50.770;0.250;2023-09-30T09:03:51;12.32;;;3.45;;
5961;SDS011;3007;50.770;0.250;2023-09-30T09:06:18;10.60;;;3.33;;
5961;SDS011;3007;50.770;0.250;2023-09-30T09:08:47;8.68;;;3.67;;
5961;SDS011;3007;50.770;0.250;2023-09-30T09:11:14;11.93;;;3.85;;
5961;SDS011;3007;50.770;0.250;2023-09-30T09:13:46;13.65;;;4.45;;
5961;SDS011;3007;50.770;0.250;2023-09-30T09:16:15;10.63;;;4.20;;
5961;SDS011;3007;50.770;0.250;2023-09-30T09:18:44;12.73;;;4.90;;
5961;SDS011;3007;50.770;0.250;2023-09-30T09:21:12;9.32;;;4.28;;
5961;SDS011;3007;50.770;0.250;2023-09-30T09:23:44;14.70;;;4.63;;
5961;SDS011;3007;50.770;0.250;2023-09-30T09:26:22;13.50;;;4.32;;
5961;SDS011;3007;50.770;0.250;2023-09-30T09:28:50;14.13;;;4.70;;
5961;SDS011;3007;50.770;0.250;2023-09-30T09:31:23;13.88;;;5.22;;
5961;SDS011;3007;50.770;0.250;2023-09-30T09:33:51;14.20;;;4.35;;
5961;SDS011;3007;50.770;0.250;2023-09-30T09:36:18;13.57;;;3.92;;
5961;SDS011;3007;50.770;0.250;2023-09-30T09:38:46;13.60;;;3.75;;
5961;SDS011;3007;50.770;0.250;2023-09-30T09:41:16;13.45;;;3.55;;
5961;SDS011;3007;50.770;0.250;2023-09-30T09:43:43;13.85;;;3.90;;
5961;SDS011;3007;50.770;0.250;2023-09-30T09:46:10;11.65;;;3.15;;
5961;SDS011;3007;50.770;0.250;2023-09-30T09:48:39;10.25;;;3.33;;
5961;SDS011;3007;50.770;0.250;2023-09-30T09:51:06;10.07;;;2.58;;
5961;SDS011;3007;50.770;0.250;2023-09-30T09:53:37;13.05;;;2.88;;
5961;SDS011;3007;50.770;0.250;2023-09-30T09:56:07;8.88;;;3.08;;
5961;SDS011;3007;50.770;0.250;2023-09-30T09:58:38;11.85;;;3.47;;
5961;SDS011;3007;50.770;0.250;2023-09-30T10:01:07;7.50;;;2.85;;
5961;SDS011;3007;50.770;0.250;2023-09-30T10:03:36;14.98;;;3.05;;
5961;SDS011;3007;50.770;0.250;2023-09-30T10:06:04;11.07;;;3.53;;
5961;SDS011;3007;50.770;0.250;2023-09-30T10:08:35;6.60;;;2.53;;
5961;SDS011;3007;50.770;0.250;2023-09-30T10:11:04;9.00;;;2.70;;
5961;SDS011;3007;50.770;0.250;2023-09-30T10:13:52;11.32;;;2.55;;
5961;SDS011;3007;50.770;0.250;2023-09-30T10:19:16;10.40;;;2.25;;
5961;SDS011;3007;50.770;0.250;2023-09-30T10:24:50;10.30;;;2.72;;
5961;SDS011;3007;50.770;0.250;2023-09-30T10:27:27;11.23;;;2.25;;
5961;SDS011;3007;50.770;0.250;2023-09-30T10:29:58;11.30;;;2.40;;
5961;SDS011;3007;50.770;0.250;2023-09-30T10:35:42;6.85;;;2.45;;
5961;SDS011;3007;50.770;0.250;2023-09-30T10:41:08;9.60;;;2.70;;
5961;SDS011;3007;50.770;0.250;2023-09-30T10:43:37;10.30;;;2.53;;
5961;SDS011;3007;50.770;0.250;2023-09-30T10:49:17;9.57;;;2.38;;
5961;SDS011;3007;50.770;0.250;2023-09-30T10:52:00;8.88;;;2.15;;
5961;SDS011;3007;50.770;0.250;2023-09-30T10:54:28;14.88;;;3.08;;
5961;SDS011;3007;50.770;0.250;2023-09-30T10:56:57;12.55;;;2.80;;
5961;SDS011;3007;50.770;0.250;2023-09-30T10:59:25;7.13;;;2.13;;
5961;SDS011;3007;50.770;0.250;2023-09-30T11:01:56;12.70;;;2.67;;
5961;SDS011;3007;50.770;0.250;2023-09-30T11:04:23;10.57;;;2.25;;
5961;SDS011;3007;50.770;0.250;2023-09-30T11:06:52;11.50;;;2.70;;
5961;SDS011;3007;50.770;0.250;2023-09-30T11:09:19;8.00;;;2.20;;
5961;SDS011;3007;50.770;0.250;2023-09-30T11:11:47;10.30;;;2.80;;
5961;SDS011;3007;50.770;0.250;2023-09-30T11:14:21;8.90;;;2.40;;
5961;SDS011;3007;50.770;0.250;2023-09-30T11:16:49;13.10;;;2.45;;
5961;SDS011;3007;50.770;0.250;2023-09-30T11:19:19;11.00;;;2.63;;
5961;SDS011;3007;50.770;0.250;2023-09-30T11:21:47;7.80;;;2.08;;
5961;SDS011;3007;50.770;0.250;2023-09-30T11:24:15;11.93;;;2.22;;
5961;SDS011;3007;50.770;0.250;2023-09-30T11:26:42;8.50;;;2.10;;
5961;SDS011;3007;50.770;0.250;2023-09-30T11:29:10;11.10;;;2.75;;
5961;SDS011;3007;50.770;0.250;2023-09-30T11:31:42;10.98;;;2.08;;
5961;SDS011;3007;50.770;0.250;2023-09-30T11:34:10;6.70;;;2.20;;
5961;SDS011;3007;50.770;0.250;2023-09-30T11:36:48;8.77;;;2.22;;
5961;SDS011;3007;50.770;0.250;2023-09-30T11:39:23;12.00;;;2.35;;
5961;SDS011;3007;50.770;0.250;2023-09-30T11:41:50;8.95;;;3.05;;
5961;SDS011;3007;50.770;0.250;2023-09-30T11:44:17;6.10;;;2.33;;
5961;SDS011;3007;50.770;0.250;2023-09-30T11:46:48;10.93;;;3.00;;
5961;SDS011;3007;50.770;0.250;2023-09-30T11:49:27;9.48;;;2.92;;
5961;SDS011;3007;50.770;0.250;2023-09-30T11:51:58;10.95;;;2.85;;
5961;SDS011;3007;50.770;0.250;2023-09-30T11:54:29;9.40;;;1.85;;
5961;SDS011;3007;50.770;0.250;2023-09-30T11:56:57;12.80;;;2.35;;
5961;SDS011;3007;50.770;0.250;2023-09-30T11:59:24;8.68;;;2.00;;
5961;SDS011;3007;50.770;0.250;2023-09-30T12:01:51;9.38;;;2.20;;
5961;SDS011;3007;50.770;0.250;2023-09-30T12:04:18;12.32;;;2.50;;
5961;SDS011;3007;50.770;0.250;2023-09-30T12:06:45;9.02;;;2.60;;
5961;SDS011;3007;50.770;0.250;2023-09-30T12:09:14;9.40;;;2.28;;
5961;SDS011;3007;50.770;0.250;2023-09-30T12:11:42;8.43;;;2.33;;
5961;SDS011;3007;50.770;0.250;2023-09-30T12:14:10;13.60;;;2.40;;
5961;SDS011;3007;50.770;0.250;2023-09-30T12:16:38;11.90;;;2.20;;
5961;SDS011;3007;50.770;0.250;2023-09-30T12:19:06;8.45;;;2.42;;
5961;SDS011;3007;50.770;0.250;2023-09-30T12:21:34;9.50;;;2.45;;
5961;SDS011;3007;50.770;0.250;2023-09-30T12:24:02;10.05;;;2.45;;
5961;SDS011;3007;50.770;0.250;2023-09-30T12:26:31;9.85;;;2.72;;
5961;SDS011;3007;50.770;0.250;2023-09-30T12:28:57;10.52;;;2.28;;
5961;SDS011;3007;50.770;0.250;2023-09-30T12:31:24;8.10;;;2.30;;
5961;SDS011;3007;50.770;0.250;2023-09-30T12:33:51;11.43;;;2.38;;
5961;SDS011;3007;50.770;0.250;2023-09-30T12:36:18;8.57;;;2.42;;
5961;SDS011;3007;50.770;0.250;2023-09-30T12:38:46;12.05;;;2.20;;
5961;SDS011;3007;50.770;0.250;2023-09-30T12:41:13;6.75;;;2.10;;
5961;SDS011;3007;50.770;0.250;2023-09-30T12:43:42;9.45;;;2.78;;
5961;SDS011;3007;50.770;0.250;2023-09-30T12:46:09;6.55;;;2.13;;
5961;SDS011;3007;50.770;0.250;2023-09-30T12:48:38;10.48;;;2.65;;
5961;SDS011;3007;50.770;0.250;2023-09-30T12:51:05;8.15;;;2.05;;
5961;SDS011;3007;50.770;0.250;2023-09-30T12:53:35;9.30;;;2.72;;
5961;SDS011;3007;50.770;0.250;2023-09-30T12:56:02;6.97;;;2.45;;
5961;SDS011;3007;50.770;0.250;2023-09-30T12:58:29;9.70;;;2.50;;
5961;SDS011;3007;50.770;0.250;2023-09-30T13:00:57;9.45;;;2.75;;
5961;SDS011;3007;50.770;0.250;2023-09-30T13:03:24;9.88;;;2.53;;
5961;SDS011;3007;50.770;0.250;2023-09-30T13:05:51;8.25;;;2.50;;
5961;SDS011;3007;50.770;0.250;2023-09-30T13:08:19;8.07;;;2.30;;
5961;SDS011;3007;50.770;0.250;2023-09-30T13:10:46;9.43;;;1.90;;
5961;SDS011;3007;50.770;0.250;2023-09-30T13:13:15;6.68;;;2.17;;
5961;SDS011;3007;50.770;0.250;2023-09-30T13:15:42;12.57;;;2.47;;
5961;SDS011;3007;50.770;0.250;2023-09-30T13:18:09;8.73;;;2.53;;
5961;SDS011;3007;50.770;0.250;2023-09-30T13:20:36;10.32;;;2.10;;
5961;SDS011;3007;50.770;0.250;2023-09-30T13:23:03;9.07;;;2.40;;
5961;SDS011;3007;50.770;0.250;2023-09-30T13:25:30;8.00;;;2.13;;
5961;SDS011;3007;50.770;0.250;2023-09-30T13:27:57;7.53;;;2.28;;
5961;SDS011;3007;50.770;0.250;2023-09-30T13:30:23;7.50;;;2.40;;
5961;SDS011;3007;50.770;0.250;2023-09-30T13:32:50;12.25;;;2.65;;
5961;SDS011;3007;50.770;0.250;2023-09-30T13:35:19;11.95;;;2.55;;
5961;SDS011;3007;50.770;0.250;2023-09-30T13:37:45;9.70;;;2.25;;
5961;SDS011;3007;50.770;0.250;2023-09-30T13:40:12;11.38;;;2.33;;
5961;SDS011;3007;50.770;0.250;2023-09-30T13:42:39;8.32;;;2.22;;
5961;SDS011;3007;50.770;0.250;2023-09-30T13:45:07;8.43;;;2.58;;
5961;SDS011;3007;50.770;0.250;2023-09-30T13:47:37;5.78;;;1.92;;
5961;SDS011;3007;50.770;0.250;2023-09-30T13:50:05;9.38;;;2.40;;
5961;SDS011;3007;50.770;0.250;2023-09-30T13:52:34;9.75;;;2.50;;
5961;SDS011;3007;50.770;0.250;2023-09-30T13:55:02;9.88;;;2.58;;
5961;SDS011;3007;50.770;0.250;2023-09-30T13:57:29;7.10;;;2.60;;
5961;SDS011;3007;50.770;0.250;2023-09-30T13:59:56;8.98;;;2.47;;
5961;SDS011;3007;50.770;0.250;2023-09-30T14:02:23;10.00;;;2.67;;
5961;SDS011;3007;50.770;0.250;2023-09-30T14:04:50;9.05;;;2.42;;
5961;SDS011;3007;50.770;0.250;2023-09-30T14:07:18;9.27;;;2.55;;
5961;SDS011;3007;50.770;0.250;2023-09-30T14:09:46;7.03;;;2.42;;
5961;SDS011;3007;50.770;0.250;2023-09-30T14:12:13;7.45;;;2.20;;
5961;SDS011;3007;50.770;0.250;2023-09-30T14:14:40;12.27;;;2.67;;
5961;SDS011;3007;50.770;0.250;2023-09-30T14:17:07;10.40;;;2.30;;
5961;SDS011;3007;50.770;0.250;2023-09-30T14:19:36;8.85;;;2.45;;
5961;SDS011;3007;50.770;0.250;2023-09-30T14:22:04;8.43;;;2.20;;
5961;SDS011;3007;50.770;0.250;2023-09-30T14:24:31;7.68;;;2.22;;
5961;SDS011;3007;50.770;0.250;2023-09-30T14:27:00;10.07;;;2.50;;
5961;SDS011;3007;50.770;0.250;2023-09-30T14:29:28;13.38;;;3.40;;
5961;SDS011;3007;50.770;0.250;2023-09-30T14:31:55;12.85;;;3.30;;
5961;SDS011;3007;50.770;0.250;2023-09-30T14:34:22;7.82;;;2.67;;
5961;SDS011;3007;50.770;0.250;2023-09-30T14:36:49;6.40;;;2.15;;
5961;SDS011;3007;50.770;0.250;2023-09-30T14:39:16;13.40;;;3.22;;
5961;SDS011;3007;50.770;0.250;2023-09-30T14:41:43;8.10;;;2.83;;
5961;SDS011;3007;50.770;0.250;2023-09-30T14:44:12;11.27;;;3.15;;
5961;SDS011;3007;50.770;0.250;2023-09-30T14:46:39;9.65;;;3.05;;
5961;SDS011;3007;50.770;0.250;2023-09-30T14:49:06;11.80;;;2.70;;
5961;SDS011;3007;50.770;0.250;2023-09-30T14:51:33;7.80;;;2.70;;
5961;SDS011;3007;50.770;0.250;2023-09-30T14:54:00;10.60;;;3.03;;
5961;SDS011;3007;50.770;0.250;2023-09-30T14:56:27;11.68;;;2.45;;
5961;SDS011;3007;50.770;0.250;2023-09-30T14:58:54;10.30;;;2.63;;
5961;SDS011;3007;50.770;0.250;2023-09-30T15:01:22;9.30;;;2.65;;
5961;SDS011;3007;50.770;0.250;2023-09-30T15:03:51;8.50;;;2.97;;
5961;SDS011;3007;50.770;0.250;2023-09-30T15:06:18;10.23;;;3.20;;
5961;SDS011;3007;50.770;0.250;2023-09-30T15:08:46;12.63;;;3.22;;
5961;SDS011;3007;50.770;0.250;2023-09-30T15:11:13;11.23;;;2.67;;
5961;SDS011;3007;50.770;0.250;2023-09-30T15:13:41;11.27;;;2.75;;
5961;SDS011;3007;50.770;0.250;2023-09-30T15:16:14;11.68;;;2.80;;
5961;SDS011;3007;50.770;0.250;2023-09-30T15:18:43;10.07;;;2.92;;
5961;SDS011;3007;50.770;0.250;2023-09-30T15:21:10;11.88;;;3.13;;
5961;SDS011;3007;50.770;0.250;2023-09-30T15:23:37;8.93;;;2.45;;
5961;SDS011;3007;50.770;0.250;2023-09-30T15:26:04;8.55;;;2.83;;
5961;SDS011;3007;50.770;0.250;2023-09-30T15:28:31;10.23;;;2.90;;
5961;SDS011;3007;50.770;0.250;2023-09-30T15:30:58;10.02;;;3.17;;